Terminal Aerodrome Forecast
Issued by NWS Twin Cities, MN

Home | Current Version | Previous Version | Graphics & Text | Print | Product List | Glossary On
Versions: 1 2 3 4 5 6 7 8 9 10 11 12 13 14 15 16 17 18 19 20 21 22 23 24 25 26 27 28 29 30 31
471
FTUS43 KMPX 102050 AAA
TAFMSP
TAF AMD
KMSP 102050Z 1021/1124 32008KT P6SM BKN020 OVC100
     FM102300 30005KT P6SM SCT020 OVC100
     FM110300 24004KT P6SM BKN020 OVC100
     FM110500 18005KT 3SM -SN BR SCT009 OVC020
     FM111000 20005KT P6SM VCSH BKN020 OVC040
     FM111300 23006KT P6SM -SN OVC020
     FM111600 32011KT 6SM -SHSN OVC015
     FM111900 33014G23KT P6SM VCSH OVC025=

USA.gov is the U.S. government's official web portal to all federal, state and local government web resources and services.